createdAt,value
2022-08-21T00:00:17.330Z,16.20
2022-08-21T00:02:56.926Z,16.20
2022-08-21T00:05:25.467Z,16.10
2022-08-21T00:07:52.815Z,16.10
2022-08-21T00:10:20.436Z,16.10
2022-08-21T00:12:48.224Z,16.10
2022-08-21T00:15:18.570Z,16.10
2022-08-21T00:17:45.289Z,16.10
2022-08-21T00:20:14.335Z,16.10
2022-08-21T00:22:41.551Z,16.10
2022-08-21T00:25:09.361Z,16.10
2022-08-21T00:27:36.729Z,16.10
2022-08-21T00:30:05.676Z,16.20
2022-08-21T00:32:32.424Z,16.20
2022-08-21T00:34:59.229Z,16.20
2022-08-21T00:37:26.240Z,16.20
2022-08-21T00:39:54.236Z,16.20
2022-08-21T00:42:21.357Z,16.20
2022-08-21T00:44:49.736Z,16.20
2022-08-21T00:47:17.596Z,16.10
2022-08-21T00:49:45.008Z,16.10
2022-08-21T00:52:18.408Z,16.10
2022-08-21T00:54:46.683Z,16.10
2022-08-21T00:57:23.165Z,16.00
2022-08-21T00:59:54.046Z,16.00
2022-08-21T01:02:22.532Z,16.00
2022-08-21T01:04:49.386Z,16.00
2022-08-21T01:07:17.428Z,15.90
2022-08-21T01:09:47.980Z,15.90
2022-08-21T01:12:15.748Z,15.90
2022-08-21T01:14:44.175Z,15.90
2022-08-21T01:17:16.526Z,15.90
2022-08-21T01:19:43.823Z,15.90
2022-08-21T01:22:10.837Z,15.90
2022-08-21T01:24:37.588Z,15.90
2022-08-21T01:27:04.817Z,15.80
2022-08-21T01:29:47.579Z,15.80
2022-08-21T01:32:16.656Z,15.80
2022-08-21T01:34:45.969Z,15.80
2022-08-21T01:37:13.657Z,15.80
2022-08-21T01:39:41.389Z,15.80
2022-08-21T01:42:10.380Z,15.80
2022-08-21T01:44:37.374Z,15.80
2022-08-21T01:47:08.362Z,15.70
2022-08-21T01:49:35.959Z,15.70
2022-08-21T01:52:03.780Z,15.70
2022-08-21T01:54:31.298Z,15.70
2022-08-21T01:57:00.478Z,15.70
2022-08-21T01:59:27.402Z,15.70
2022-08-21T02:01:57.428Z,15.70
2022-08-21T02:04:25.069Z,15.70
2022-08-21T02:06:52.014Z,15.70
2022-08-21T02:09:19.777Z,15.70
2022-08-21T02:11:47.210Z,15.70
2022-08-21T02:14:15.688Z,15.60
2022-08-21T02:17:08.830Z,15.60
2022-08-21T02:19:39.493Z,15.60
2022-08-21T02:22:09.151Z,15.60
2022-08-21T02:24:37.002Z,15.60
2022-08-21T02:27:26.671Z,15.50
2022-08-21T02:29:55.603Z,15.50
2022-08-21T02:32:22.446Z,15.40
2022-08-21T02:34:50.034Z,15.40
2022-08-21T02:37:16.956Z,15.40
2022-08-21T02:39:43.698Z,15.30
2022-08-21T02:42:10.385Z,15.30
2022-08-21T02:44:37.087Z,15.30
2022-08-21T02:47:03.748Z,15.30
2022-08-21T02:49:30.408Z,15.30
2022-08-21T02:51:57.062Z,15.20
2022-08-21T02:54:23.725Z,15.20
2022-08-21T02:56:50.418Z,15.20
2022-08-21T02:59:17.097Z,15.20
2022-08-21T03:01:43.804Z,15.20
2022-08-21T03:04:11.397Z,15.20
2022-08-21T03:06:38.042Z,15.20
2022-08-21T03:09:04.830Z,15.20
2022-08-21T03:11:31.483Z,15.20
2022-08-21T03:13:58.221Z,15.20
2022-08-21T03:16:24.888Z,15.10
2022-08-21T03:18:51.533Z,15.10
2022-08-21T03:21:19.875Z,15.10
2022-08-21T03:23:46.710Z,15.00
2022-08-21T03:26:13.499Z,15.00
2022-08-21T03:28:40.670Z,15.00
2022-08-21T03:31:07.439Z,15.00
2022-08-21T03:33:34.159Z,15.00
2022-08-21T03:36:04.534Z,15.00
2022-08-21T03:38:33.246Z,14.90
2022-08-21T03:41:01.004Z,14.90
2022-08-21T03:43:31.104Z,14.90
2022-08-21T03:45:59.797Z,14.90
2022-08-21T03:48:26.464Z,14.90
2022-08-21T03:50:53.949Z,14.90
2022-08-21T03:53:20.654Z,14.90
2022-08-21T03:55:49.518Z,14.90
2022-08-21T03:58:18.677Z,14.90
2022-08-21T04:00:50.895Z,14.90
2022-08-21T04:03:18.582Z,14.80
2022-08-21T04:05:46.754Z,14.80
2022-08-21T04:08:14.826Z,14.70
2022-08-21T04:10:42.314Z,14.70
2022-08-21T04:13:09.751Z,14.60
2022-08-21T04:15:37.229Z,14.60
2022-08-21T04:18:05.710Z,14.60
2022-08-21T04:20:32.566Z,14.50
2022-08-21T04:22:59.641Z,14.60
2022-08-21T04:25:26.566Z,14.60
2022-08-21T04:27:54.060Z,14.60
2022-08-21T04:30:21.318Z,14.50
2022-08-21T04:32:54.973Z,14.50
2022-08-21T04:35:23.376Z,14.50
2022-08-21T04:37:50.479Z,14.50
2022-08-21T04:40:19.072Z,14.40
2022-08-21T04:42:51.814Z,14.40
2022-08-21T04:45:23.004Z,14.40
2022-08-21T04:47:53.090Z,14.40
2022-08-21T04:50:21.384Z,14.40
2022-08-21T04:52:48.300Z,14.40
2022-08-21T04:55:16.842Z,14.40
2022-08-21T04:57:48.815Z,14.40
2022-08-21T05:00:19.794Z,14.40
2022-08-21T05:02:51.025Z,14.50
2022-08-21T05:05:18.088Z,14.50
2022-08-21T05:07:46.193Z,14.60
2022-08-21T05:10:14.916Z,14.60
2022-08-21T05:12:43.817Z,14.70
2022-08-21T05:15:13.491Z,14.70
2022-08-21T05:17:42.006Z,14.80
2022-08-21T05:20:10.744Z,14.90
2022-08-21T05:22:37.729Z,15.00
2022-08-21T05:25:09.694Z,15.20
2022-08-21T05:27:39.161Z,15.30
2022-08-21T05:30:08.545Z,15.50
2022-08-21T05:32:37.058Z,15.70
2022-08-21T05:35:06.878Z,15.90
2022-08-21T05:37:34.725Z,16.10
2022-08-21T05:40:20.414Z,16.20
2022-08-21T05:42:54.634Z,16.40
2022-08-21T05:45:42.254Z,16.50
2022-08-21T05:48:11.904Z,16.60
2022-08-21T05:50:39.116Z,16.80
2022-08-21T05:53:07.927Z,16.90
2022-08-21T05:55:36.393Z,17.10
2022-08-21T05:58:03.480Z,17.20
2022-08-21T06:00:30.367Z,17.30
2022-08-21T06:02:57.709Z,17.30
2022-08-21T06:05:37.271Z,17.50
2022-08-21T06:08:04.952Z,17.70
2022-08-21T06:10:32.209Z,17.90
2022-08-21T06:12:59.093Z,17.80
2022-08-21T06:15:26.214Z,17.70
2022-08-21T06:17:54.353Z,17.70
2022-08-21T06:20:21.238Z,17.70
2022-08-21T06:22:47.930Z,17.90
2022-08-21T06:25:14.783Z,18.00
2022-08-21T06:27:41.438Z,18.30
2022-08-21T06:30:08.908Z,18.30
2022-08-21T06:32:36.272Z,18.60
2022-08-21T06:35:03.308Z,18.70
2022-08-21T06:37:30.094Z,19.00
2022-08-21T06:39:56.950Z,19.10
2022-08-21T06:42:28.217Z,19.00
2022-08-21T06:44:55.266Z,19.20
2022-08-21T06:47:22.174Z,19.30
2022-08-21T06:49:48.914Z,19.60
2022-08-21T06:52:16.750Z,19.80
2022-08-21T06:54:43.473Z,19.90
2022-08-21T06:57:10.466Z,20.10
2022-08-21T06:59:37.344Z,20.20
2022-08-21T07:02:04.568Z,20.30
2022-08-21T07:04:31.304Z,20.50
2022-08-21T07:06:58.117Z,20.60
2022-08-21T07:09:25.107Z,20.70
2022-08-21T07:11:55.915Z,20.80
2022-08-21T07:14:23.210Z,20.90
2022-08-21T07:16:51.705Z,21.10
2022-08-21T07:19:18.778Z,21.20
2022-08-21T07:21:45.496Z,21.30
2022-08-21T07:24:13.421Z,21.30
2022-08-21T07:26:40.450Z,21.40
2022-08-21T07:29:07.489Z,21.70
2022-08-21T07:31:34.289Z,21.90
2022-08-21T07:34:01.217Z,21.80
2022-08-21T07:36:27.976Z,21.80
2022-08-21T07:38:54.940Z,21.90
2022-08-21T07:41:26.515Z,22.00
2022-08-21T07:43:53.967Z,22.20
2022-08-21T07:46:21.209Z,22.20
2022-08-21T07:48:48.095Z,22.30
2022-08-21T07:51:17.516Z,22.50
2022-08-21T07:53:52.780Z,22.60
2022-08-21T07:56:20.138Z,22.70
2022-08-21T07:58:47.065Z,22.80
2022-08-21T08:01:14.723Z,23.00
2022-08-21T08:03:41.927Z,23.10
2022-08-21T08:06:13.259Z,23.00
2022-08-21T08:08:41.720Z,23.20
2022-08-21T08:11:15.976Z,23.30
2022-08-21T08:13:44.821Z,23.10
2022-08-21T08:16:11.571Z,22.80
2022-08-21T08:18:38.484Z,22.70
2022-08-21T08:21:06.048Z,22.80
2022-08-21T08:23:33.376Z,23.00
2022-08-21T08:26:00.894Z,23.10
2022-08-21T08:28:28.195Z,23.40
2022-08-21T08:30:55.080Z,23.70
2022-08-21T08:33:22.677Z,23.80
2022-08-21T08:35:51.387Z,23.80
2022-08-21T08:38:20.927Z,23.70
2022-08-21T08:41:09.317Z,23.90
2022-08-21T08:43:36.781Z,24.10
2022-08-21T08:46:11.893Z,24.10
2022-08-21T08:48:53.105Z,24.30
2022-08-21T08:51:30.445Z,24.60
2022-08-21T08:54:01.233Z,24.40
2022-08-21T08:56:32.252Z,24.10
2022-08-21T08:59:22.120Z,23.40
2022-08-21T09:01:49.530Z,23.50
2022-08-21T09:04:24.825Z,23.60
2022-08-21T09:06:57.009Z,23.70
2022-08-21T09:09:42.602Z,23.60
2022-08-21T09:12:26.137Z,23.50
2022-08-21T09:14:58.838Z,23.40
2022-08-21T09:17:54.779Z,23.40
2022-08-21T09:20:29.856Z,23.60
2022-08-21T09:23:09.014Z,23.90
2022-08-21T09:25:46.877Z,23.90
2022-08-21T09:28:15.633Z,23.70
2022-08-21T09:30:43.076Z,23.50
2022-08-21T09:33:13.731Z,23.60
2022-08-21T09:35:54.784Z,23.90
2022-08-21T09:38:37.667Z,24.10
2022-08-21T09:41:08.557Z,24.50
2022-08-21T09:43:36.350Z,24.30
2022-08-21T09:46:13.258Z,24.00
2022-08-21T09:48:49.309Z,24.10
2022-08-21T09:51:20.001Z,24.10
2022-08-21T09:53:54.270Z,24.40
2022-08-21T09:57:12.185Z,24.70
2022-08-21T09:59:39.139Z,24.90
2022-08-21T10:02:25.098Z,24.70
2022-08-21T10:04:55.012Z,23.70
2022-08-21T10:07:24.551Z,23.60
2022-08-21T10:10:08.330Z,23.90
2022-08-21T10:12:51.090Z,24.10
2022-08-21T10:15:40.149Z,24.00
2022-08-21T10:18:31.246Z,24.10
2022-08-21T10:21:03.403Z,24.60
2022-08-21T10:23:54.162Z,25.00
2022-08-21T10:26:46.246Z,24.80
2022-08-21T10:29:26.942Z,24.60
2022-08-21T10:32:14.266Z,24.60
2022-08-21T10:34:57.261Z,24.60
2022-08-21T10:37:39.822Z,24.60
2022-08-21T10:40:32.603Z,24.30
2022-08-21T10:43:06.164Z,24.20
2022-08-21T10:45:45.218Z,24.80
2022-08-21T10:48:25.268Z,25.10
2022-08-21T10:50:56.920Z,25.60
2022-08-21T10:53:51.091Z,26.30
2022-08-21T10:56:25.277Z,25.80
2022-08-21T10:59:36.596Z,24.50
2022-08-21T11:02:05.119Z,23.70
2022-08-21T11:04:49.514Z,23.00
2022-08-21T11:07:40.861Z,23.00
2022-08-21T11:10:54.200Z,23.00
2022-08-21T11:13:40.249Z,23.00
2022-08-21T11:16:34.148Z,23.20
2022-08-21T11:19:16.460Z,23.90
2022-08-21T11:21:54.526Z,24.10
2022-08-21T11:24:29.930Z,23.90
2022-08-21T11:27:02.188Z,23.60
2022-08-21T11:29:32.470Z,23.30
2022-08-21T11:32:36.878Z,23.20
2022-08-21T11:35:37.986Z,23.60
2022-08-21T11:38:24.345Z,24.50
2022-08-21T11:41:12.862Z,25.30
2022-08-21T11:43:41.221Z,26.00
2022-08-21T11:46:26.805Z,26.60
2022-08-21T11:48:53.467Z,27.00
2022-08-21T11:51:31.078Z,26.70
2022-08-21T11:54:44.780Z,26.00
2022-08-21T11:57:24.276Z,25.60
2022-08-21T12:00:04.276Z,26.30
2022-08-21T12:02:36.777Z,26.20
2022-08-21T12:05:22.974Z,25.70
2022-08-21T12:08:01.942Z,25.20
2022-08-21T12:10:38.968Z,24.90
2022-08-21T12:13:12.416Z,24.50
2022-08-21T12:15:39.236Z,24.00
2022-08-21T12:18:20.909Z,24.00
2022-08-21T12:21:19.806Z,24.00
2022-08-21T12:24:05.187Z,24.20
2022-08-21T12:26:49.626Z,24.80
2022-08-21T12:29:32.489Z,25.00
2022-08-21T12:32:21.199Z,25.30
2022-08-21T12:35:07.753Z,25.50
2022-08-21T12:37:53.425Z,25.60
2022-08-21T12:40:27.073Z,25.60
2022-08-21T12:42:59.115Z,26.00
2022-08-21T12:45:33.300Z,26.20
2022-08-21T12:48:09.344Z,26.20
2022-08-21T12:50:51.101Z,25.70
2022-08-21T12:53:32.739Z,25.20
2022-08-21T12:56:04.603Z,24.70
2022-08-21T12:58:32.583Z,25.20
2022-08-21T13:01:05.837Z,25.50
2022-08-21T13:03:36.760Z,25.10
2022-08-21T13:06:06.172Z,24.80
2022-08-21T13:08:40.122Z,24.70
2022-08-21T13:11:14.859Z,24.40
2022-08-21T13:13:46.874Z,24.60
2022-08-21T13:16:29.525Z,24.90
2022-08-21T13:19:03.483Z,25.20
2022-08-21T13:21:40.180Z,25.50
2022-08-21T13:24:42.540Z,25.90
2022-08-21T13:27:23.179Z,26.50
2022-08-21T13:30:09.592Z,26.80
2022-08-21T13:32:40.105Z,27.30
2022-08-21T13:35:47.046Z,27.70
2022-08-21T13:38:14.938Z,27.50
2022-08-21T13:40:51.221Z,27.20
2022-08-21T13:43:29.559Z,27.20
2022-08-21T13:45:57.770Z,26.60
2022-08-21T13:48:28.813Z,25.80
2022-08-21T13:50:56.820Z,25.30
2022-08-21T13:53:37.250Z,25.30
2022-08-21T13:56:05.592Z,25.10
2022-08-21T13:58:43.204Z,24.80
2022-08-21T14:01:26.545Z,24.50
2022-08-21T14:03:58.933Z,24.70
2022-08-21T14:06:29.136Z,25.20
2022-08-21T14:09:10.213Z,25.50
2022-08-21T14:11:37.608Z,25.70
2022-08-21T14:14:15.692Z,25.90
2022-08-21T14:16:47.060Z,26.40
2022-08-21T14:19:23.308Z,26.70
2022-08-21T14:21:51.053Z,26.70
2022-08-21T14:24:24.279Z,26.20
2022-08-21T14:26:57.209Z,26.50
2022-08-21T14:29:31.759Z,26.40
2022-08-21T14:32:21.633Z,26.50
2022-08-21T14:34:48.778Z,26.70
2022-08-21T14:37:15.489Z,26.70
2022-08-21T14:39:45.127Z,26.80
2022-08-21T14:42:12.840Z,26.60
2022-08-21T14:44:39.976Z,26.20
2022-08-21T14:47:06.732Z,26.20
2022-08-21T14:49:33.540Z,26.50
2022-08-21T14:52:00.334Z,26.60
2022-08-21T14:54:32.441Z,26.50
2022-08-21T14:57:08.575Z,26.50
2022-08-21T14:59:36.411Z,26.60
2022-08-21T15:02:05.306Z,26.50
2022-08-21T15:04:32.628Z,26.60
2022-08-21T15:06:59.424Z,26.20
2022-08-21T15:09:26.203Z,26.20
2022-08-21T15:11:56.164Z,26.30
2022-08-21T15:14:26.011Z,26.30
2022-08-21T15:16:53.357Z,26.00
2022-08-21T15:19:20.365Z,25.60
2022-08-21T15:21:47.129Z,25.40
2022-08-21T15:24:14.015Z,25.30
2022-08-21T15:26:40.773Z,25.20
2022-08-21T15:29:08.924Z,25.10
2022-08-21T15:31:36.196Z,24.90
2022-08-21T15:34:03.749Z,24.80
2022-08-21T15:36:30.633Z,24.70
2022-08-21T15:38:57.288Z,24.40
2022-08-21T15:41:24.021Z,24.20
2022-08-21T15:43:53.872Z,24.40
2022-08-21T15:46:21.610Z,24.50
2022-08-21T15:48:48.416Z,24.50
2022-08-21T15:51:16.797Z,24.60
2022-08-21T15:53:44.145Z,24.60
2022-08-21T15:56:38.195Z,24.60
2022-08-21T15:59:12.999Z,24.50
2022-08-21T16:01:44.745Z,24.40
2022-08-21T16:04:19.274Z,24.50
2022-08-21T16:06:55.318Z,24.50
2022-08-21T16:09:24.233Z,24.50
2022-08-21T16:11:51.970Z,24.40
2022-08-21T16:14:18.857Z,24.10
2022-08-21T16:16:46.516Z,24.00
2022-08-21T16:19:14.538Z,23.90
2022-08-21T16:21:41.745Z,23.90
2022-08-21T16:24:08.532Z,23.80
2022-08-21T16:26:35.325Z,23.70
2022-08-21T16:29:03.270Z,23.60
2022-08-21T16:31:31.705Z,23.50
2022-08-21T16:33:58.673Z,23.50
2022-08-21T16:36:29.055Z,23.40
2022-08-21T16:38:57.806Z,23.40
2022-08-21T16:41:27.121Z,23.40
2022-08-21T16:43:53.985Z,23.40
2022-08-21T16:46:22.572Z,23.40
2022-08-21T16:48:50.084Z,23.30
2022-08-21T16:51:17.471Z,23.20
2022-08-21T16:53:44.510Z,23.20
2022-08-21T16:56:13.966Z,23.20
2022-08-21T16:58:44.141Z,23.10
2022-08-21T17:01:15.078Z,23.10
2022-08-21T17:03:45.901Z,23.00
2022-08-21T17:06:15.095Z,23.00
2022-08-21T17:08:42.462Z,22.80
2022-08-21T17:11:29.305Z,22.80
2022-08-21T17:14:11.532Z,22.70
2022-08-21T17:16:45.507Z,22.70
2022-08-21T17:19:13.345Z,22.60
2022-08-21T17:21:40.020Z,22.60
2022-08-21T17:24:06.798Z,22.50
2022-08-21T17:26:33.822Z,22.50
2022-08-21T17:29:00.780Z,22.40
2022-08-21T17:31:29.564Z,22.40
2022-08-21T17:33:56.594Z,22.30
2022-08-21T17:36:28.378Z,22.20
2022-08-21T17:38:56.108Z,22.20
2022-08-21T17:41:23.728Z,22.10
2022-08-21T17:43:51.574Z,22.10
2022-08-21T17:46:22.268Z,22.00
2022-08-21T17:48:49.103Z,22.00
2022-08-21T17:51:16.924Z,21.90
2022-08-21T17:53:44.991Z,21.80
2022-08-21T17:56:14.913Z,21.80
2022-08-21T17:58:48.389Z,21.70
2022-08-21T18:01:15.371Z,21.60
2022-08-21T18:03:42.341Z,21.50
2022-08-21T18:06:09.360Z,21.40
2022-08-21T18:08:36.141Z,21.40
2022-08-21T18:11:03.821Z,21.30
2022-08-21T18:13:34.892Z,21.30
2022-08-21T18:16:02.053Z,21.20
2022-08-21T18:18:36.682Z,21.10
2022-08-21T18:21:03.431Z,21.00
2022-08-21T18:23:44.168Z,20.90
2022-08-21T18:26:15.480Z,20.90
2022-08-21T18:28:44.130Z,20.80
2022-08-21T18:31:12.819Z,20.70
2022-08-21T18:33:57.697Z,20.60
2022-08-21T18:36:27.128Z,20.50
2022-08-21T18:38:55.097Z,20.50
2022-08-21T18:41:22.402Z,20.40
2022-08-21T18:43:49.666Z,20.30
2022-08-21T18:46:17.341Z,20.30
2022-08-21T18:48:44.318Z,20.30
2022-08-21T18:51:12.285Z,20.20
2022-08-21T18:53:39.054Z,20.20
2022-08-21T18:56:07.198Z,20.20
2022-08-21T18:58:44.238Z,20.10
2022-08-21T19:01:11.072Z,20.10
2022-08-21T19:03:38.754Z,20.10
2022-08-21T19:06:05.992Z,20.10
2022-08-21T19:08:36.667Z,20.00
2022-08-21T19:11:06.428Z,20.00
2022-08-21T19:13:33.794Z,19.90
2022-08-21T19:16:05.020Z,19.80
2022-08-21T19:18:37.482Z,19.70
2022-08-21T19:21:06.204Z,19.70
2022-08-21T19:23:35.125Z,19.70
2022-08-21T19:26:03.814Z,19.80
2022-08-21T19:28:41.001Z,19.70
2022-08-21T19:31:26.161Z,19.70
2022-08-21T19:34:05.278Z,19.70
2022-08-21T19:36:32.986Z,19.70
2022-08-21T19:39:00.171Z,19.70
2022-08-21T19:41:30.529Z,19.60
2022-08-21T19:43:59.723Z,19.50
2022-08-21T19:46:31.340Z,19.30
2022-08-21T19:48:59.660Z,19.20
2022-08-21T19:51:27.704Z,19.10
2022-08-21T19:53:56.965Z,19.10
2022-08-21T19:56:26.220Z,19.00
2022-08-21T19:58:53.563Z,18.90
2022-08-21T20:01:22.819Z,18.90
2022-08-21T20:03:54.024Z,18.80
2022-08-21T20:06:24.161Z,18.70
2022-08-21T20:08:51.912Z,18.60
2022-08-21T20:11:40.798Z,18.60
2022-08-21T20:14:09.364Z,18.50
2022-08-21T20:16:36.466Z,18.50
2022-08-21T20:19:05.244Z,18.40
2022-08-21T20:21:43.970Z,18.40
2022-08-21T20:24:14.654Z,18.50
2022-08-21T20:27:02.703Z,18.40
2022-08-21T20:29:36.249Z,18.40
2022-08-21T20:32:07.924Z,18.40
2022-08-21T20:34:39.793Z,18.30
2022-08-21T20:37:06.673Z,18.20
2022-08-21T20:39:36.098Z,18.20
2022-08-21T20:42:07.004Z,18.20
2022-08-21T20:44:34.527Z,18.20
2022-08-21T20:47:08.682Z,18.10
2022-08-21T20:49:43.005Z,18.10
2022-08-21T20:52:10.893Z,18.10
2022-08-21T20:55:02.130Z,18.00
2022-08-21T20:57:38.704Z,18.00
2022-08-21T21:00:14.492Z,17.90
2022-08-21T21:03:04.247Z,17.90
2022-08-21T21:05:53.428Z,17.80
2022-08-21T21:08:29.489Z,17.80
2022-08-21T21:11:07.871Z,17.70
2022-08-21T21:13:44.696Z,17.70
2022-08-21T21:16:21.871Z,17.80
2022-08-21T21:18:55.184Z,17.70
2022-08-21T21:21:35.904Z,17.70
2022-08-21T21:24:07.660Z,17.80
2022-08-21T21:26:48.865Z,17.70
2022-08-21T21:29:32.693Z,17.70
2022-08-21T21:31:59.523Z,17.50
2022-08-21T21:34:31.172Z,17.30
2022-08-21T21:37:05.976Z,17.30
2022-08-21T21:40:12.004Z,17.20
2022-08-21T21:43:02.892Z,17.20
2022-08-21T21:45:52.638Z,17.20
2022-08-21T21:48:43.788Z,17.30
2022-08-21T21:51:39.037Z,17.20
2022-08-21T21:54:17.719Z,17.20
2022-08-21T21:57:16.649Z,17.20
2022-08-21T22:00:14.379Z,17.20
2022-08-21T22:02:52.313Z,17.30
2022-08-21T22:05:40.858Z,17.20
2022-08-21T22:08:15.773Z,17.10
2022-08-21T22:10:52.637Z,17.00
2022-08-21T22:13:52.610Z,16.90
2022-08-21T22:16:19.718Z,16.90
2022-08-21T22:18:54.869Z,16.90
2022-08-21T22:21:38.376Z,16.90
2022-08-21T22:24:18.151Z,16.80
2022-08-21T22:26:50.514Z,16.80
2022-08-21T22:29:22.020Z,16.80
2022-08-21T22:32:07.896Z,16.80
2022-08-21T22:34:34.712Z,16.90
2022-08-21T22:37:08.745Z,16.90
2022-08-21T22:39:44.458Z,16.80
2022-08-21T22:42:14.430Z,16.80
2022-08-21T22:44:59.689Z,16.70
2022-08-21T22:47:33.955Z,16.70
2022-08-21T22:50:05.496Z,16.70
2022-08-21T22:52:35.298Z,16.60
2022-08-21T22:55:18.520Z,16.70
2022-08-21T22:58:11.883Z,16.70
2022-08-21T23:00:57.635Z,16.60
2022-08-21T23:03:46.310Z,16.70
2022-08-21T23:06:34.752Z,16.60
2022-08-21T23:09:02.851Z,16.70
2022-08-21T23:11:42.701Z,16.70
2022-08-21T23:14:14.097Z,16.60
2022-08-21T23:16:53.253Z,16.60
2022-08-21T23:19:53.799Z,16.60
2022-08-21T23:22:28.277Z,16.60
2022-08-21T23:25:05.672Z,16.50
2022-08-21T23:27:57.347Z,16.50
2022-08-21T23:30:51.775Z,16.40
2022-08-21T23:33:31.760Z,16.30
2022-08-21T23:36:34.771Z,16.40
2022-08-21T23:39:05.055Z,16.30
2022-08-21T23:41:42.411Z,16.40
2022-08-21T23:44:33.332Z,16.40
2022-08-21T23:47:38.662Z,16.50
2022-08-21T23:50:19.611Z,16.50
2022-08-21T23:53:01.411Z,16.50
2022-08-21T23:55:58.147Z,16.50
2022-08-21T23:58:44.202Z,16.30
